Time,TemperatureF,DewpointF,PressureIn,WindDirection,WindDirectionDegrees,WindSpeedMPH,WindSpeedGustMPH,Humidity,HourlyPrecipIn,Conditions,Clouds,dailyrainin,SoftwareType,DateUTC
2013-01-18 00:02:00,16.0,12.0,-100.00,ESE,114,3.0,4.0,83,0.00,,,-99.99,,2013-01-18 07:02:00,
2013-01-18 00:12:00,16.0,11.0,-100.00,ESE,114,3.0,4.0,82,0.00,,,-99.99,,2013-01-18 07:12:00,
2013-01-18 00:22:00,16.0,11.0,-100.00,ESE,114,3.0,4.0,82,0.00,,,-99.99,,2013-01-18 07:22:00,
2013-01-18 00:42:00,15.0,10.0,-100.00,ESE,110,4.0,4.0,83,0.00,,,-99.99,,2013-01-18 07:42:00,
2013-01-18 00:52:00,17.0,12.0,-100.00,SE,126,4.0,4.0,81,0.00,,,-99.99,,2013-01-18 07:52:00,
2013-01-18 01:02:00,17.0,12.0,-100.00,SE,126,4.0,4.0,81,0.00,,,-99.99,,2013-01-18 08:02:00,
2013-01-18 01:11:00,16.0,12.0,-100.00,SE,138,4.0,5.0,84,0.00,,,-99.99,,2013-01-18 08:11:00,
2013-01-18 01:22:00,17.0,12.0,-100.00,SSE,150,3.0,3.0,82,0.00,,,-99.99,,2013-01-18 08:22:00,
2013-01-18 01:42:00,18.0,13.0,-100.00,SSE,168,3.0,3.0,81,0.00,,,-99.99,,2013-01-18 08:42:00,
2013-01-18 01:53:00,18.0,13.0,-100.00,SE,143,3.0,3.0,81,0.00,,,-99.99,,2013-01-18 08:53:00,
2013-01-18 02:02:00,18.0,13.0,-100.00,SE,143,3.0,3.0,81,0.00,,,-99.99,,2013-01-18 09:02:00,
2013-01-18 02:12:00,15.0,10.0,-100.00,SE,128,3.0,4.0,83,0.00,,,-99.99,,2013-01-18 09:12:00,
2013-01-18 02:22:00,14.0,9.0,-100.00,SE,127,4.0,4.0,82,0.00,,,-99.99,,2013-01-18 09:22:00,
2013-01-18 02:32:00,14.0,9.0,-100.00,SE,127,4.0,4.0,82,0.00,,,-99.99,,2013-01-18 09:32:00,
2013-01-18 02:52:00,17.0,12.0,-100.00,SSE,148,3.0,4.0,82,0.00,,,-99.99,,2013-01-18 09:52:00,
2013-01-18 03:02:00,17.0,12.0,-100.00,SSE,148,3.0,4.0,82,0.00,,,-99.99,,2013-01-18 10:02:00,
2013-01-18 03:12:00,17.0,12.0,-100.00,SE,130,1.0,2.0,80,0.00,,,-99.99,,2013-01-18 10:12:00,
2013-01-18 03:22:00,17.0,13.0,-100.00,SSE,147,1.0,2.0,83,0.00,,,-99.99,,2013-01-18 10:22:00,
2013-01-18 03:32:00,17.0,13.0,-100.00,SSE,147,1.0,2.0,83,0.00,,,-99.99,,2013-01-18 10:32:00,
2013-01-18 03:42:00,15.0,11.0,-100.00,SE,134,4.0,5.0,84,0.00,,,-99.99,,2013-01-18 10:42:00,
2013-01-18 03:52:00,15.0,10.0,-100.00,SE,133,5.0,6.0,82,0.00,,,-99.99,,2013-01-18 10:52:00,
2013-01-18 04:02:00,15.0,10.0,-100.00,SE,133,5.0,6.0,82,0.00,,,-99.99,,2013-01-18 11:02:00,
2013-01-18 04:12:00,18.0,13.0,-100.00,SE,138,4.0,5.0,80,0.00,,,-99.99,,2013-01-18 11:12:00,
2013-01-18 04:22:00,19.0,14.0,-100.00,SSE,152,1.0,1.0,79,0.00,,,-99.99,,2013-01-18 11:22:00,
2013-01-18 04:32:00,19.0,14.0,-100.00,SSE,152,1.0,1.0,79,0.00,,,-99.99,,2013-01-18 11:32:00,
2013-01-18 04:42:00,18.0,12.0,-100.00,SSE,151,2.0,3.0,78,0.00,,,-99.99,,2013-01-18 11:42:00,
2013-01-18 04:53:00,19.0,13.0,-100.00,South,169,2.0,3.0,77,0.00,,,-99.99,,2013-01-18 11:53:00,
2013-01-18 05:02:00,19.0,13.0,-100.00,South,169,2.0,3.0,77,0.00,,,-99.99,,2013-01-18 12:02:00,
2013-01-18 05:12:00,13.0,10.0,-100.00,NE,34,2.0,3.0,87,0.00,,,-99.99,,2013-01-18 12:12:00,
2013-01-18 05:22:00,15.0,12.0,-100.00,ESE,102,1.0,2.0,86,0.00,,,-99.99,,2013-01-18 12:22:00,
2013-01-18 05:32:00,15.0,12.0,-100.00,ESE,102,1.0,2.0,86,0.00,,,-99.99,,2013-01-18 12:32:00,
2013-01-18 05:42:00,16.0,13.0,-100.00,SSE,165,1.0,2.0,86,0.00,,,-99.99,,2013-01-18 12:42:00,
2013-01-18 05:53:00,13.0,11.0,-100.00,SE,127,1.0,2.0,90,0.00,,,-99.99,,2013-01-18 12:53:00,
2013-01-18 06:02:00,13.0,11.0,-100.00,SE,127,1.0,2.0,90,0.00,,,-99.99,,2013-01-18 13:02:00,
2013-01-18 06:12:00,14.0,11.0,-100.00,SE,130,2.0,3.0,90,0.00,,,-99.99,,2013-01-18 13:12:00,
2013-01-18 06:22:00,14.0,11.0,-100.00,SE,131,3.0,3.0,90,0.00,,,-99.99,,2013-01-18 13:22:00,
2013-01-18 06:33:00,14.0,11.0,-100.00,SE,131,3.0,3.0,90,0.00,,,-99.99,,2013-01-18 13:33:00,
2013-01-18 06:42:00,16.0,13.0,-100.00,SSE,168,2.0,2.0,88,0.00,,,-99.99,,2013-01-18 13:42:00,
2013-01-18 06:53:00,15.0,12.0,-100.00,SSE,150,2.0,3.0,88,0.00,,,-99.99,,2013-01-18 13:53:00,
2013-01-18 07:03:00,15.0,12.0,-100.00,SSE,150,2.0,3.0,88,0.00,,,-99.99,,2013-01-18 14:03:00,
2013-01-18 07:12:00,15.0,11.0,-100.00,SE,144,3.0,5.0,84,0.00,,,-99.99,,2013-01-18 14:12:00,
2013-01-18 07:22:00,13.0,11.0,-100.00,ESE,109,4.0,4.0,89,0.00,,,-99.99,,2013-01-18 14:22:00,
2013-01-18 07:33:00,13.0,11.0,-100.00,ESE,109,4.0,4.0,89,0.00,,,-99.99,,2013-01-18 14:33:00,
2013-01-18 07:42:00,14.0,10.0,-100.00,ESE,110,2.0,3.0,82,0.00,,,-99.99,,2013-01-18 14:42:00,
2013-01-18 07:53:00,16.0,13.0,-100.00,ENE,65,0.0,0.0,86,0.00,,,-99.99,,2013-01-18 14:53:00,
2013-01-18 08:02:00,16.0,13.0,-100.00,ENE,65,0.0,0.0,86,0.00,,,-99.99,,2013-01-18 15:02:00,
2013-01-18 08:12:00,13.0,9.0,-100.00,NNW,344,0.0,2.0,82,0.00,,,-99.99,,2013-01-18 15:12:00,
2013-01-18 08:22:00,14.0,11.0,-100.00,NE,41,3.0,3.0,89,0.00,,,-99.99,,2013-01-18 15:22:00,
2013-01-18 08:33:00,14.0,11.0,-100.00,NE,41,3.0,3.0,89,0.00,,,-99.99,,2013-01-18 15:33:00,
2013-01-18 08:42:00,15.0,9.0,-100.00,SE,124,2.0,2.0,76,0.00,,,-99.99,,2013-01-18 15:42:00,
2013-01-18 08:53:00,15.0,11.0,-100.00,SSE,164,1.0,2.0,85,0.00,,,-99.99,,2013-01-18 15:53:00,
2013-01-18 09:02:00,15.0,11.0,-100.00,SSE,164,1.0,2.0,85,0.00,,,-99.99,,2013-01-18 16:02:00,
2013-01-18 09:12:00,15.0,12.0,-100.00,South,174,2.0,3.0,89,0.00,,,-99.99,,2013-01-18 16:12:00,
2013-01-18 09:23:00,15.0,12.0,-100.00,SSE,158,2.0,3.0,86,0.00,,,-99.99,,2013-01-18 16:23:00,
2013-01-18 09:32:00,15.0,12.0,-100.00,SSE,158,2.0,3.0,86,0.00,,,-99.99,,2013-01-18 16:32:00,
2013-01-18 09:42:00,16.0,13.0,-100.00,South,175,1.0,2.0,86,0.00,,,-99.99,,2013-01-18 16:42:00,
2013-01-18 09:53:00,17.0,13.0,-100.00,South,176,1.0,2.0,84,0.00,,,-99.99,,2013-01-18 16:53:00,
2013-01-18 10:02:00,17.0,13.0,-100.00,South,176,1.0,2.0,84,0.00,,,-99.99,,2013-01-18 17:02:00,
2013-01-18 10:12:00,18.0,14.0,-100.00,South,186,1.0,2.0,86,0.00,,,-99.99,,2013-01-18 17:12:00,
2013-01-18 10:22:00,19.0,14.0,-100.00,SE,128,1.0,2.0,82,0.00,,,-99.99,,2013-01-18 17:22:00,
2013-01-18 10:33:00,19.0,14.0,-100.00,SE,128,1.0,2.0,82,0.00,,,-99.99,,2013-01-18 17:33:00,
2013-01-18 10:42:00,20.0,14.0,-100.00,SSE,148,0.0,1.0,78,0.00,,,-99.99,,2013-01-18 17:42:00,
2013-01-18 10:53:00,20.0,14.0,-100.00,SSE,148,0.0,1.0,78,0.00,,,-99.99,,2013-01-18 17:53:00,
2013-01-18 11:12:00,22.0,15.0,-100.00,SSW,199,0.0,0.0,73,0.00,,,-99.99,,2013-01-18 18:12:00,
2013-01-18 11:23:00,20.0,14.0,-100.00,SW,226,1.0,2.0,77,0.00,,,-99.99,,2013-01-18 18:23:00,
2013-01-18 11:33:00,20.0,14.0,-100.00,SW,226,1.0,2.0,77,0.00,,,-99.99,,2013-01-18 18:33:00,
2013-01-18 11:43:00,18.0,14.0,-100.00,South,188,2.0,3.0,82,0.00,,,-99.99,,2013-01-18 18:43:00,
2013-01-18 11:53:00,18.0,13.0,-100.00,South,186,2.0,2.0,82,0.00,,,-99.99,,2013-01-18 18:53:00,
2013-01-18 12:02:00,18.0,13.0,-100.00,South,186,2.0,2.0,82,0.00,,,-99.99,,2013-01-18 19:02:00,
2013-01-18 12:12:00,20.0,14.0,-100.00,South,182,0.0,2.0,77,0.00,,,-99.99,,2013-01-18 19:12:00,
2013-01-18 12:22:00,18.0,13.0,-100.00,SSW,195,2.0,2.0,80,0.00,,,-99.99,,2013-01-18 19:22:00,
2013-01-18 12:32:00,18.0,13.0,-100.00,SSW,195,2.0,2.0,80,0.00,,,-99.99,,2013-01-18 19:32:00,
2013-01-18 12:42:00,19.0,14.0,-100.00,South,175,1.0,2.0,80,0.00,,,-99.99,,2013-01-18 19:42:00,
2013-01-18 12:53:00,20.0,14.0,-100.00,SW,215,1.0,2.0,76,0.00,,,-99.99,,2013-01-18 19:53:00,
2013-01-18 13:02:00,20.0,14.0,-100.00,SW,215,1.0,2.0,76,0.00,,,-99.99,,2013-01-18 20:02:00,
2013-01-18 13:12:00,20.0,14.0,-100.00,South,186,1.0,1.0,76,0.00,,,-99.99,,2013-01-18 20:12:00,
2013-01-18 13:22:00,23.0,14.0,-100.00,SW,223,0.0,1.0,69,0.00,,,-99.99,,2013-01-18 20:22:00,
2013-01-18 13:33:00,23.0,14.0,-100.00,SW,223,0.0,1.0,69,0.00,,,-99.99,,2013-01-18 20:33:00,
2013-01-18 13:42:00,22.0,14.0,-100.00,SSW,195,0.0,1.0,71,0.00,,,-99.99,,2013-01-18 20:42:00,
2013-01-18 13:53:00,22.0,14.0,-100.00,SSW,195,0.0,1.0,71,0.00,,,-99.99,,2013-01-18 20:53:00,
2013-01-18 14:02:00,22.0,14.0,-100.00,SSW,195,0.0,1.0,71,0.00,,,-99.99,,2013-01-18 21:02:00,
2013-01-18 14:12:00,20.0,14.0,-100.00,NE,56,0.0,0.0,78,0.00,,,-99.99,,2013-01-18 21:12:00,
2013-01-18 14:22:00,22.0,15.0,-100.00,WNW,298,0.0,1.0,73,0.00,,,-99.99,,2013-01-18 21:22:00,
2013-01-18 14:33:00,22.0,15.0,-100.00,WNW,298,0.0,1.0,73,0.00,,,-99.99,,2013-01-18 21:33:00,
2013-01-18 14:42:00,24.0,15.0,-100.00,SE,141,0.0,1.0,66,0.00,,,-99.99,,2013-01-18 21:42:00,
2013-01-18 14:53:00,21.0,14.0,-100.00,ENE,72,0.0,1.0,75,0.00,,,-99.99,,2013-01-18 21:53:00,
2013-01-18 15:02:00,21.0,14.0,-100.00,ENE,72,0.0,1.0,75,0.00,,,-99.99,,2013-01-18 22:02:00,
2013-01-18 15:12:00,20.0,14.0,-100.00,ENE,78,1.0,2.0,78,0.00,,,-99.99,,2013-01-18 22:12:00,
2013-01-18 15:22:00,19.0,13.0,-100.00,NE,38,2.0,3.0,78,0.00,,,-99.99,,2013-01-18 22:22:00,
2013-01-18 15:32:00,19.0,13.0,-100.00,NE,38,2.0,3.0,78,0.00,,,-99.99,,2013-01-18 22:32:00,
2013-01-18 15:42:00,19.0,13.0,-100.00,NE,37,2.0,2.0,77,0.00,,,-99.99,,2013-01-18 22:42:00,
2013-01-18 15:53:00,18.0,13.0,-100.00,NNE,28,2.0,2.0,81,0.00,,,-99.99,,2013-01-18 22:53:00,
2013-01-18 16:02:00,18.0,13.0,-100.00,NNE,28,2.0,2.0,81,0.00,,,-99.99,,2013-01-18 23:02:00,
2013-01-18 16:12:00,19.0,14.0,-100.00,ENE,62,2.0,2.0,81,0.00,,,-99.99,,2013-01-18 23:12:00,
2013-01-18 16:22:00,17.0,12.0,-100.00,NNE,30,2.0,2.0,81,0.00,,,-99.99,,2013-01-18 23:22:00,
2013-01-18 16:32:00,17.0,12.0,-100.00,NNE,30,2.0,2.0,81,0.00,,,-99.99,,2013-01-18 23:32:00,
2013-01-18 16:42:00,16.0,12.0,-100.00,NNE,24,1.0,2.0,85,0.00,,,-99.99,,2013-01-18 23:42:00,
2013-01-18 16:53:00,17.0,13.0,-100.00,NE,38,2.0,2.0,84,0.00,,,-99.99,,2013-01-18 23:53:00,
2013-01-18 17:02:00,17.0,13.0,-100.00,NE,38,2.0,2.0,84,0.00,,,-99.99,,2013-01-19 00:02:00,
2013-01-18 17:12:00,16.0,13.0,-100.00,ENE,78,0.0,0.0,87,0.00,,,-99.99,,2013-01-19 00:12:00,
2013-01-18 17:22:00,15.0,11.0,-100.00,East,85,0.0,2.0,86,0.00,,,-99.99,,2013-01-19 00:22:00,
2013-01-18 17:32:00,15.0,11.0,-100.00,East,85,0.0,2.0,86,0.00,,,-99.99,,2013-01-19 00:32:00,
2013-01-18 17:42:00,15.0,12.0,-100.00,East,100,2.0,3.0,86,0.00,,,-99.99,,2013-01-19 00:42:00,
2013-01-18 17:53:00,14.0,11.0,-100.00,East,97,2.0,3.0,90,0.00,,,-99.99,,2013-01-19 00:53:00,
2013-01-18 18:02:00,14.0,11.0,-100.00,East,97,2.0,3.0,90,0.00,,,-99.99,,2013-01-19 01:02:00,
2013-01-18 18:12:00,15.0,12.0,-100.00,ESE,119,3.0,4.0,87,0.00,,,-99.99,,2013-01-19 01:12:00,
2013-01-18 18:22:00,16.0,11.0,-100.00,ESE,114,3.0,4.0,82,0.00,,,-99.99,,2013-01-19 01:22:00,
2013-01-18 18:32:00,16.0,11.0,-100.00,ESE,114,3.0,4.0,82,0.00,,,-99.99,,2013-01-19 01:32:00,
2013-01-18 18:42:00,13.0,10.0,-100.00,ESE,123,4.0,4.0,88,0.00,,,-99.99,,2013-01-19 01:42:00,
2013-01-18 18:52:00,14.0,9.0,-100.00,ESE,102,3.0,4.0,80,0.00,,,-99.99,,2013-01-19 01:52:00,
2013-01-18 19:02:00,14.0,9.0,-100.00,ESE,102,3.0,4.0,80,0.00,,,-99.99,,2013-01-19 02:02:00,
2013-01-18 19:12:00,15.0,11.0,-100.00,ESE,103,3.0,4.0,85,0.00,,,-99.99,,2013-01-19 02:12:00,
2013-01-18 19:22:00,17.0,12.0,-100.00,SE,133,2.0,3.0,82,0.00,,,-99.99,,2013-01-19 02:22:00,
2013-01-18 19:32:00,17.0,12.0,-100.00,SE,133,2.0,3.0,82,0.00,,,-99.99,,2013-01-19 02:32:00,
2013-01-18 19:42:00,15.0,11.0,-100.00,ESE,121,3.0,3.0,83,0.00,,,-99.99,,2013-01-19 02:42:00,
2013-01-18 19:53:00,13.0,7.0,-100.00,NNW,347,1.0,3.0,78,0.00,,,-99.99,,2013-01-19 02:53:00,
2013-01-18 20:02:00,13.0,7.0,-100.00,NNW,347,1.0,3.0,78,0.00,,,-99.99,,2013-01-19 03:02:00,
2013-01-18 20:12:00,14.0,11.0,-100.00,SSE,168,1.0,2.0,85,0.00,,,-99.99,,2013-01-19 03:12:00,
2013-01-18 20:22:00,13.0,9.0,-100.00,SE,130,4.0,4.0,84,0.00,,,-99.99,,2013-01-19 03:22:00,
2013-01-18 20:32:00,13.0,9.0,-100.00,SE,130,4.0,4.0,84,0.00,,,-99.99,,2013-01-19 03:32:00,
2013-01-18 20:42:00,13.0,10.0,-100.00,SE,127,4.0,5.0,89,0.00,,,-99.99,,2013-01-19 03:42:00,
2013-01-18 20:52:00,13.0,9.0,-100.00,East,93,2.0,3.0,85,0.00,,,-99.99,,2013-01-19 03:52:00,
2013-01-18 21:02:00,13.0,10.0,-100.00,SSE,148,5.0,7.0,86,0.00,,,-99.99,,2013-01-19 04:02:00,
2013-01-18 21:22:00,14.0,9.0,-100.00,NNE,20,4.0,4.0,82,0.00,,,-99.99,,2013-01-19 04:22:00,
2013-01-18 21:32:00,14.0,9.0,-100.00,NNE,20,4.0,4.0,82,0.00,,,-99.99,,2013-01-19 04:32:00,
2013-01-18 21:42:00,16.0,11.0,-100.00,WSW,257,1.0,1.0,80,0.00,,,-99.99,,2013-01-19 04:42:00,
2013-01-18 21:53:00,9.0,7.0,-100.00,East,79,0.0,4.0,91,0.00,,,-99.99,,2013-01-19 04:53:00,
2013-01-18 22:03:00,9.0,7.0,-100.00,East,79,0.0,4.0,91,0.00,,,-99.99,,2013-01-19 05:03:00,
2013-01-18 22:12:00,13.0,11.0,-100.00,SE,133,4.0,5.0,90,0.00,,,-99.99,,2013-01-19 05:12:00,
2013-01-18 22:22:00,11.0,8.0,-100.00,ESE,119,4.0,5.0,86,0.00,,,-99.99,,2013-01-19 05:22:00,
2013-01-18 22:32:00,11.0,8.0,-100.00,ESE,119,4.0,5.0,86,0.00,,,-99.99,,2013-01-19 05:32:00,
2013-01-18 22:42:00,11.0,7.0,-100.00,East,80,4.0,5.0,83,0.00,,,-99.99,,2013-01-19 05:42:00,
2013-01-18 22:53:00,12.0,10.0,-100.00,ESE,119,3.0,4.0,91,0.00,,,-99.99,,2013-01-19 05:53:00,
2013-01-18 23:02:00,12.0,10.0,-100.00,ESE,119,3.0,4.0,91,0.00,,,-99.99,,2013-01-19 06:02:00,
2013-01-18 23:12:00,13.0,10.0,-100.00,SE,128,3.0,4.0,87,0.00,,,-99.99,,2013-01-19 06:12:00,
2013-01-18 23:22:00,13.0,8.0,-100.00,ESE,123,3.0,3.0,80,0.00,,,-99.99,,2013-01-19 06:22:00,
2013-01-18 23:32:00,13.0,8.0,-100.00,ESE,123,3.0,3.0,80,0.00,,,-99.99,,2013-01-19 06:32:00,
2013-01-18 23:42:00,15.0,9.0,-100.00,SE,124,1.0,2.0,77,0.00,,,-99.99,,2013-01-19 06:42:00,
2013-01-18 23:53:00,12.0,8.0,-100.00,ESE,120,4.0,5.0,85,0.00,,,-99.99,,2013-01-19 06:53:00,